Huvudsida
METAR-TAF:

METAR-TAF

Flygplatser :

Salalah, Oman

latitud: 17-02N, longitud: 054-05E, höjd: 20 m

Aktuellt väderrapport

Denna rapport gjordes för 22 minuter sedan, klockan 13:50 UTC
Vind 11 kt från syd/sydväst
Temperatur 30°C
Fuktighet 84%
Tryck 1002 hPa
Sikt 10 km eller mer
Få moln på en höjd av 2500 ft
Få moln på en höjd av 9000 ft
Få moln på en höjd av 25000 ft

METAR: OOSA 241350Z 20011KT 9999 FEW025 FEW090 FEW250 30/27 Q1002 NOSIG

Tid: 18:12 (14:12 UTC)

Väderprognos

Denna rapport gjordes för 3 timmar och 12 minuter sedan, klockan 11:00 UTC
Prognos gäller från 24 kl. 12 UTC till 25 kl. 18 UTC
Vind 11 kt från syd
Sikt 10 km eller mer
Spridda moln på en höjd av 2500 ft
Blir
från 24 kl. 16 UTC till 24 kl. 18 UTC
Vind 3 kt varierande vindriktning
Blir
från 25 kl. 05 UTC till 25 kl. 07 UTC
Vind 13 kt från syd

TAF: OOSA 241100Z 2412/2518 19011KT 9999 SCT025 BECMG 2416/2418 VRB03KT BECMG 2505/2507 19013KT

Aktuella väderrapporter och prognoser från 4000 flygplatser (METAR- och TAF-rapporter).

De tillgängliga stationerna syns som gula och röda prickar på kartan.

För musen över prickarna för att se namnen på stationerna.

Klicka sedan för att få väderrapporter och prognoser.

För att ändra kartan: Klicka på de gröna knapparna med ett svart kors på för att zooma in; den gröna knappen med ett streck på för att zooma ut; eller på de gröna pilarna för angränsande kartor.


METAR-TAF: